Time;durP1;ratioP1;P1;durP2;ratioP2;P2;SDS_P1;SDS_P2;PMS_P1;PMS_P2;Temp;Humidity;BMP_temperature;BMP_pressure;BME280_temperature;BME280_humidity;BME280_pressure;Samples;Min_cycle;Max_cycle;Signal;HPM_P1;HPM_P2
2023/05/07 00:00:51;;;;;;;;;;;13.40;47.40;;;12.08;48.10;101832.22;12254371;19;19956;-87
2023/05/07 00:04:53;;;;;;;;;;;13.40;47.10;;;11.97;48.05;101814.38;12246308;19;19925;-88
2023/05/07 00:08:56;;;;;;;;;;;13.40;47.20;;;12.04;48.05;101820.19;12252691;19;19939;-87
2023/05/07 00:12:58;;;;;;;;;;;13.50;47.10;;;12.13;48.10;101838.13;12253565;19;19910;-87
2023/05/07 00:16:59;;;;;;;;;;;13.40;47.50;;;12.10;48.28;101833.88;12248368;19;19966;-88
2023/05/07 00:21:01;;;;;;;;;;;13.40;47.20;;;12.04;48.03;101812.31;12253864;19;19915;-87
2023/05/07 00:25:02;;;;;;;;;;;13.40;47.20;;;12.16;48.22;101830.13;12249396;19;19919;-87
2023/05/07 00:29:04;;;;;;;;;;;13.40;46.80;;;12.07;48.23;101823.53;12252331;19;20330;-87
2023/05/07 00:33:06;;;;;;;;;;;13.40;46.80;;;12.10;48.14;101827.78;12251710;19;19915;-87
2023/05/07 00:37:08;;;;;;;;;;;13.40;46.80;;;12.16;48.15;101843.22;12245619;19;19925;-87
2023/05/07 00:41:10;;;;;;;;;;;13.40;46.90;;;12.18;48.21;101846.63;12249773;19;19943;-88
2023/05/07 00:45:11;;;;;;;;;;;13.40;47.10;;;12.15;48.21;101837.13;12249751;19;19949;-87
2023/05/07 00:49:13;;;;;;;;;;;13.40;47.30;;;12.11;48.27;101834.72;12250042;19;19974;-87
2023/05/07 00:53:14;;;;;;;;;;;13.40;47.50;;;12.10;48.04;101833.88;12249897;19;19974;-87
2023/05/07 00:57:16;;;;;;;;;;;13.40;47.50;;;12.08;48.25;101832.22;12257912;19;19911;-87
2023/05/07 01:01:18;;;;;;;;;;;13.40;47.20;;;11.99;48.18;101811.66;12261089;19;19919;-87
2023/05/07 01:05:22;;;;;;;;;;;13.30;47.00;;;12.04;48.03;101812.31;12261280;19;19919;-88
2023/05/07 01:09:25;;;;;;;;;;;13.30;47.20;;;12.05;48.28;101829.75;12261516;19;19915;-87
2023/05/07 01:13:27;;;;;;;;;;;13.40;46.90;;;11.95;48.45;101813.59;12261814;19;19923;-87
2023/05/07 01:17:29;;;;;;;;;;;13.30;47.20;;;12.07;48.23;101834.00;12250130;19;19919;-87
2023/05/07 01:21:48;;;;;;;;;;;13.30;47.30;;;12.08;48.41;101832.22;12257444;19;19915;-87
2023/05/07 01:25:52;;;;;;;;;;;13.30;47.80;;;12.10;48.33;101839.09;12254552;19;19951;-87
2023/05/07 01:29:55;;;;;;;;;;;13.40;47.40;;;11.84;48.21;101797.47;12259921;19;19941;-87
2023/05/07 01:33:59;;;;;;;;;;;13.30;47.20;;;12.11;48.34;101839.94;12258551;19;19931;-87
2023/05/07 01:38:04;;;;;;;;;;;13.30;47.50;;;11.97;48.21;101816.16;12248997;19;19922;-87
2023/05/07 01:42:06;;;;;;;;;;;13.30;47.60;;;12.04;48.45;101831.50;12257562;19;19907;-87
2023/05/07 01:46:09;;;;;;;;;;;13.30;47.20;;;11.97;48.60;101818.75;12257076;19;19926;-87
2023/05/07 01:50:11;;;;;;;;;;;13.40;47.30;;;11.97;48.29;101821.38;12259678;19;19919;-87
2023/05/07 01:54:14;;;;;;;;;;;13.30;47.10;;;12.01;48.23;101831.63;12258973;19;19915;-87
2023/05/07 01:58:15;;;;;;;;;;;13.30;47.10;;;11.87;48.25;101805.22;12258184;19;19950;-87
2023/05/07 02:02:17;;;;;;;;;;;13.30;47.40;;;12.05;48.41;101837.59;12255518;19;20039;-87
2023/05/07 02:06:20;;;;;;;;;;;13.30;47.10;;;12.11;48.32;101855.66;12252053;19;19978;-87
2023/05/07 02:10:22;;;;;;;;;;;13.30;47.10;;;12.07;48.50;101851.47;12258756;19;19990;-87
2023/05/07 02:14:25;;;;;;;;;;;13.30;47.40;;;12.04;48.37;101849.81;12259227;19;19988;-87
2023/05/07 02:18:27;;;;;;;;;;;13.30;46.70;;;12.01;48.52;101855.19;12257827;19;19914;-87
2023/05/07 02:22:30;;;;;;;;;;;13.40;47.20;;;12.08;48.50;101864.50;12256729;19;19923;-88
2023/05/07 02:26:31;;;;;;;;;;;13.40;47.40;;;11.76;48.55;101810.03;12254960;19;19922;-87
2023/05/07 02:30:33;;;;;;;;;;;13.30;47.30;;;12.06;48.40;101861.09;12258984;19;19931;-87
2023/05/07 02:34:35;;;;;;;;;;;13.30;47.10;;;12.01;48.58;101852.56;12256298;19;19915;-87
2023/05/07 02:38:36;;;;;;;;;;;13.40;47.60;;;12.06;48.52;101868.09;12257771;19;19987;-88
2023/05/07 02:42:39;;;;;;;;;;;13.30;47.60;;;12.08;48.54;101872.34;12255847;19;19918;-87
2023/05/07 02:46:40;;;;;;;;;;;13.30;47.60;;;11.83;48.67;101835.03;12254023;19;20269;-87
2023/05/07 02:50:45;;;;;;;;;;;13.30;48.00;;;11.87;48.64;101853.16;12257938;19;19979;-87
2023/05/07 02:54:49;;;;;;;;;;;13.30;47.00;;;12.02;48.56;101879.63;12256452;19;19939;-87
2023/05/07 02:58:50;;;;;;;;;;;13.30;47.40;;;11.94;48.60;101870.31;12257475;19;19911;-87
2023/05/07 03:02:53;;;;;;;;;;;13.30;47.90;;;11.87;48.57;101866.25;12254520;19;19922;-87
2023/05/07 03:06:55;;;;;;;;;;;13.30;47.50;;;11.90;48.52;101873.13;12251178;19;19923;-87
2023/05/07 03:10:57;;;;;;;;;;;13.20;47.40;;;11.90;48.70;101873.97;12257337;19;19919;-87
2023/05/07 03:14:59;;;;;;;;;;;13.20;47.70;;;11.88;48.68;101870.59;12256399;19;19919;-88
2023/05/07 03:19:00;;;;;;;;;;;13.20;47.40;;;11.85;48.73;101872.44;12254415;19;19922;-87
2023/05/07 03:23:02;;;;;;;;;;;13.20;47.50;;;11.93;48.72;101889.53;12253213;19;19915;-87
2023/05/07 03:27:04;;;;;;;;;;;13.20;47.20;;;11.87;48.69;101878.50;12249355;19;19919;-87
2023/05/07 03:31:06;;;;;;;;;;;13.30;47.90;;;11.90;48.58;101889.69;12253624;19;19915;-88
2023/05/07 03:35:08;;;;;;;;;;;13.20;47.60;;;11.89;48.83;101892.38;12251644;19;19961;-87
2023/05/07 03:39:10;;;;;;;;;;;13.20;47.50;;;11.92;48.71;101903.56;12252514;19;20279;-87
2023/05/07 03:43:15;;;;;;;;;;;13.20;47.30;;;11.69;48.85;101867.00;12252832;19;19919;-87
2023/05/07 03:47:21;;;;;;;;;;;13.20;47.70;;;11.87;48.90;101910.75;12250201;19;20324;-88
2023/05/07 03:51:23;;;;;;;;;;;13.20;47.50;;;11.62;48.79;101873.41;12253192;19;19940;-87
2023/05/07 03:55:25;;;;;;;;;;;13.10;47.20;;;11.85;48.82;101920.41;12251168;19;19919;-87
2023/05/07 03:59:31;;;;;;;;;;;13.10;47.30;;;11.81;48.81;101916.22;12252814;19;19922;-87
2023/05/07 04:03:33;;;;;;;;;;;13.20;47.70;;;11.80;48.90;101919.75;12250826;19;19935;-88
2023/05/07 04:07:35;;;;;;;;;;;13.10;47.80;;;11.84;48.94;101920.47;12247456;19;19918;-88
2023/05/07 04:11:39;;;;;;;;;;;13.10;47.60;;;11.78;48.84;101900.66;12250744;19;20328;-87
2023/05/07 04:15:46;;;;;;;;;;;13.10;47.50;;;11.81;48.90;101905.75;12249654;19;19926;-88
2023/05/07 04:19:50;;;;;;;;;;;13.00;47.30;;;11.81;48.81;101910.97;12250729;19;19915;-87
2023/05/07 04:23:53;;;;;;;;;;;13.10;47.30;;;11.82;49.01;101917.91;12249871;19;19959;-88
2023/05/07 04:27:55;;;;;;;;;;;13.10;48.10;;;11.63;48.98;101888.19;12248349;19;19910;-87
2023/05/07 04:32:01;;;;;;;;;;;13.10;47.70;;;11.82;48.81;101922.28;12250567;19;19948;-88
2023/05/07 04:36:04;;;;;;;;;;;13.10;47.50;;;11.73;48.92;101927.00;12247779;19;19915;-87
2023/05/07 04:40:08;;;;;;;;;;;13.10;47.70;;;11.77;48.90;101939.94;12248550;19;20373;-88
2023/05/07 04:44:10;;;;;;;;;;;13.10;47.30;;;11.49;49.04;101899.22;12246540;19;19919;-87
2023/05/07 04:48:14;;;;;;;;;;;13.00;47.30;;;11.72;49.13;101938.38;12246414;19;20317;-88
2023/05/07 04:52:16;;;;;;;;;;;13.10;47.70;;;11.68;49.00;101922.88;12249995;19;19947;-87
2023/05/07 04:56:18;;;;;;;;;;;13.00;47.70;;;11.78;49.04;101941.66;12246254;19;19922;-87
2023/05/07 05:00:22;;;;;;;;;;;13.10;47.50;;;11.73;49.10;101928.75;12248126;19;20559;-88
2023/05/07 05:04:26;;;;;;;;;;;13.10;47.50;;;11.72;49.20;101933.16;12243782;19;19966;-88
2023/05/07 05:08:29;;;;;;;;;;;13.10;47.40;;;11.85;49.13;101937.88;12248091;19;19910;-88
2023/05/07 05:12:32;;;;;;;;;;;13.20;47.90;;;11.60;49.04;101911.84;12247081;19;19932;-88
2023/05/07 05:16:35;;;;;;;;;;;13.20;48.80;;;11.84;49.09;101957.13;12242858;19;19922;-88
2023/05/07 05:20:37;;;;;;;;;;;13.10;47.60;;;11.82;49.16;101948.47;12248329;19;19915;-88
2023/05/07 05:24:39;;;;;;;;;;;13.20;48.00;;;11.98;49.11;101965.28;12243799;19;20354;-88
2023/05/07 05:28:41;;;;;;;;;;;13.20;48.20;;;11.92;49.26;101960.31;12248972;19;19926;-88
2023/05/07 05:32:43;;;;;;;;;;;13.30;48.20;;;11.76;49.13;101931.25;12247463;19;19910;-88
2023/05/07 05:36:45;;;;;;;;;;;13.30;47.80;;;11.88;49.11;101943.88;12244883;19;19922;-88
2023/05/07 05:40:48;;;;;;;;;;;13.30;48.50;;;11.96;49.25;101956.63;12249294;19;19983;-88
2023/05/07 05:44:50;;;;;;;;;;;13.30;48.40;;;11.92;49.06;101950.69;12245521;19;19926;-88
2023/05/07 05:48:52;;;;;;;;;;;13.30;47.70;;;11.97;49.27;101962.75;12258058;19;19915;-88
2023/05/07 05:52:54;;;;;;;;;;;13.30;48.10;;;12.04;49.30;101958.94;12258418;19;19919;-89
2023/05/07 05:56:56;;;;;;;;;;;13.30;47.90;;;12.09;49.44;101968.31;12255374;19;19919;-88
2023/05/07 06:00:59;;;;;;;;;;;13.40;48.20;;;12.01;49.35;101953.84;12257211;19;19925;-88
2023/05/07 06:05:03;;;;;;;;;;;13.40;47.80;;;12.13;49.40;101975.13;12249325;19;19958;-89
2023/05/07 06:09:05;;;;;;;;;;;13.40;48.40;;;12.06;49.34;101955.34;12258993;19;19915;-89
2023/05/07 06:13:13;;;;;;;;;;;13.50;48.10;;;12.07;49.26;101975.41;12256216;19;20345;-89
2023/05/07 06:17:14;;;;;;;;;;;13.50;47.60;;;12.12;49.44;101962.09;12253102;19;19915;-89
2023/05/07 06:21:16;;;;;;;;;;;13.50;47.80;;;11.99;49.43;101935.59;12255293;19;19914;-89
2023/05/07 06:25:19;;;;;;;;;;;13.50;47.40;;;12.28;49.54;101976.25;12256527;19;19933;-89
2023/05/07 06:29:20;;;;;;;;;;;13.60;47.50;;;12.11;49.34;101949.91;12256208;19;19918;-89
2023/05/07 06:33:22;;;;;;;;;;;13.60;47.70;;;12.28;49.51;101976.25;12256716;19;20010;-89
2023/05/07 06:37:24;;;;;;;;;;;13.70;48.00;;;12.20;49.45;101965.22;12251726;19;19927;-89
2023/05/07 06:41:33;;;;;;;;;;;13.70;47.70;;;12.35;49.67;101985.56;12259396;19;19925;-89
2023/05/07 06:45:42;;;;;;;;;;;13.80;47.70;;;12.47;49.42;101999.88;12251486;19;19940;-88
2023/05/07 06:49:45;;;;;;;;;;;13.80;47.90;;;12.40;49.45;101985.38;12255921;19;19922;-88
2023/05/07 06:53:49;;;;;;;;;;;13.80;47.80;;;12.49;49.50;101998.06;12255387;19;19911;-89
2023/05/07 06:57:51;;;;;;;;;;;13.90;47.80;;;12.73;49.51;102016.28;12250671;19;19921;-89
2023/05/07 07:01:54;;;;;;;;;;;14.00;48.20;;;12.84;49.59;102025.34;12255131;19;19926;-89
2023/05/07 07:05:56;;;;;;;;;;;14.10;48.10;;;12.67;49.55;101972.84;12252247;19;19935;-87
2023/05/07 07:09:59;;;;;;;;;;;14.20;47.90;;;12.96;49.47;102012.63;12255213;19;20326;-87
2023/05/07 07:14:07;;;;;;;;;;;14.30;47.80;;;12.99;49.65;102002.03;12253714;19;19926;-87
2023/05/07 07:18:15;;;;;;;;;;;14.30;47.90;;;13.11;49.61;102001.44;12253903;19;19925;-87
2023/05/07 07:22:18;;;;;;;;;;;14.50;47.60;;;13.27;49.57;102010.34;12251132;19;19911;-88
2023/05/07 07:26:20;;;;;;;;;;;14.60;47.70;;;13.41;49.53;102009.72;12253415;19;20001;-88
2023/05/07 07:30:23;;;;;;;;;;;14.70;48.40;;;13.52;49.60;102009.22;12258902;19;19947;-88
2023/05/07 07:34:25;;;;;;;;;;;14.90;48.80;;;13.61;49.69;102010.53;12256880;19;19943;-85
2023/05/07 07:38:26;;;;;;;;;;;15.00;48.10;;;13.72;49.68;102003.03;12253979;19;19919;-86
2023/05/07 07:42:29;;;;;;;;;;;15.10;48.40;;;13.76;49.55;101988.81;12251278;19;19927;-86
2023/05/07 07:46:31;;;;;;;;;;;15.30;47.90;;;13.87;49.60;101975.19;12245949;19;19918;-88
2023/05/07 07:50:32;;;;;;;;;;;15.40;47.70;;;14.15;49.58;102000.94;12250979;19;20333;-86
2023/05/07 07:54:34;;;;;;;;;;;15.50;47.80;;;14.32;49.57;101997.47;12250230;19;19989;-86
2023/05/07 07:58:37;;;;;;;;;;;15.60;47.80;;;14.22;49.60;101969.94;12252264;19;19919;-86
2023/05/07 08:02:39;;;;;;;;;;;15.80;47.40;;;14.31;49.56;101982.59;12248337;19;20006;-85
2023/05/07 08:06:41;;;;;;;;;;;15.90;47.20;;;14.59;49.43;102003.13;12244440;19;19918;-85
2023/05/07 08:10:44;;;;;;;;;;;16.00;47.20;;;14.68;49.54;102002.63;12251869;19;19991;-84
2023/05/07 08:14:53;;;;;;;;;;;16.10;47.30;;;14.77;49.49;102019.72;12247708;19;20264;-84
2023/05/07 08:18:55;;;;;;;;;;;16.20;46.90;;;14.86;49.39;102013.97;12250760;19;19926;-83
2023/05/07 08:22:57;;;;;;;;;;;16.30;46.70;;;14.89;49.46;102013.81;12248695;19;19910;-88
2023/05/07 08:27:02;;;;;;;;;;;16.30;46.50;;;14.65;49.44;101965.16;12245129;19;20203;-84
2023/05/07 08:31:03;;;;;;;;;;;16.30;46.60;;;14.83;49.44;101974.69;12248682;19;20242;-85
2023/05/07 08:35:10;;;;;;;;;;;16.40;46.60;;;15.11;49.33;102023.22;12249043;19;19915;-84
2023/05/07 08:39:12;;;;;;;;;;;16.50;46.50;;;15.09;49.25;102009.28;12248874;19;19923;-84
2023/05/07 08:43:14;;;;;;;;;;;16.60;46.40;;;15.23;49.19;102038.34;12249509;19;19948;-85
2023/05/07 08:47:17;;;;;;;;;;;16.60;46.30;;;15.14;49.47;102015.16;12246988;19;19919;-85
2023/05/07 08:51:21;;;;;;;;;;;16.60;46.30;;;15.25;49.33;102025.94;12250781;19;19930;-84
2023/05/07 08:55:24;;;;;;;;;;;16.60;46.40;;;15.29;49.26;102032.75;12252249;19;19947;-86
2023/05/07 08:59:26;;;;;;;;;;;16.70;46.30;;;15.39;49.23;102033.06;12251529;19;19978;-84
2023/05/07 09:03:27;;;;;;;;;;;16.70;46.20;;;15.39;49.18;102036.59;12249809;19;19918;-84
2023/05/07 09:07:31;;;;;;;;;;;16.80;46.20;;;15.44;49.27;102042.44;12246699;19;20342;-85
2023/05/07 09:11:33;;;;;;;;;;;16.80;46.20;;;15.41;49.07;102033.84;12245795;19;19979;-84
2023/05/07 09:15:36;;;;;;;;;;;16.80;46.20;;;15.50;49.09;102046.53;12248192;19;19922;-84
2023/05/07 09:19:38;;;;;;;;;;;16.80;46.20;;;15.23;49.08;101988.34;12259497;19;19915;-84
2023/05/07 09:23:42;;;;;;;;;;;16.90;46.30;;;15.43;49.21;102014.41;12258453;19;19938;-84
2023/05/07 09:27:44;;;;;;;;;;;16.90;46.20;;;15.65;48.98;102050.09;12253895;19;19919;-85
2023/05/07 09:31:46;;;;;;;;;;;16.90;46.00;;;15.66;49.08;102047.38;12259497;19;19919;-85
2023/05/07 09:35:53;;;;;;;;;;;17.00;45.80;;;15.67;49.02;102038.53;12254755;19;19922;-84
2023/05/07 09:39:56;;;;;;;;;;;17.00;46.00;;;15.69;49.18;102026.16;12257878;19;19923;-85
2023/05/07 09:44:01;;;;;;;;;;;17.00;46.00;;;15.81;49.15;102036.94;12253740;19;19925;-85
2023/05/07 09:48:11;;;;;;;;;;;17.10;45.90;;;15.90;49.02;102034.66;12257972;19;20691;-84
2023/05/07 09:52:14;;;;;;;;;;;17.20;45.70;;;15.88;48.96;102031.25;12258070;19;19926;-84
2023/05/07 09:56:24;;;;;;;;;;;17.20;45.40;;;15.96;48.86;102044.00;12254777;19;19911;-84
2023/05/07 10:00:27;;;;;;;;;;;17.30;45.50;;;15.92;48.88;102032.75;12257350;19;19936;-84
2023/05/07 10:04:37;;;;;;;;;;;17.30;45.50;;;15.96;48.66;102038.72;12251853;19;19915;-84
2023/05/07 10:08:40;;;;;;;;;;;17.30;45.30;;;15.81;48.47;102002.72;12256982;19;19914;-85
2023/05/07 10:12:42;;;;;;;;;;;17.30;45.40;;;16.08;48.85;102038.00;12256080;19;20012;-84
2023/05/07 10:16:53;;;;;;;;;;;17.40;45.50;;;16.13;48.75;102037.75;12253055;19;20329;-85
2023/05/07 10:20:59;;;;;;;;;;;17.50;45.80;;;16.30;48.95;102036.78;12255172;19;19940;-85
2023/05/07 10:25:02;;;;;;;;;;;17.60;45.70;;;16.38;48.73;102045.91;12252485;19;19915;-84
2023/05/07 10:29:11;;;;;;;;;;;17.70;44.80;;;16.43;48.75;102050.94;12252674;19;19922;-84
2023/05/07 10:33:16;;;;;;;;;;;17.70;44.70;;;16.32;48.48;102019.94;12256088;19;19966;-85
2023/05/07 10:37:19;;;;;;;;;;;17.80;44.80;;;16.57;48.65;102039.56;12251698;19;19927;-85
2023/05/07 10:41:21;;;;;;;;;;;17.90;44.80;;;16.63;48.65;102036.56;12256644;19;20241;-85
2023/05/07 10:45:24;;;;;;;;;;;17.90;44.80;;;16.50;48.43;102002.19;12253688;19;20334;-84
2023/05/07 10:49:28;;;;;;;;;;;18.00;45.00;;;16.85;48.57;102040.56;12255987;19;19919;-84
2023/05/07 10:53:35;;;;;;;;;;;18.10;45.20;;;16.72;48.33;102007.00;12252947;19;19919;-84
2023/05/07 10:57:42;;;;;;;;;;;18.10;45.00;;;17.03;48.58;102027.09;12250052;19;19946;-85
2023/05/07 11:02:09;;;;;;;;;;;18.30;45.20;;;17.17;48.45;102028.03;12253805;19;19919;-84
2023/05/07 11:06:17;;;;;;;;;;;18.40;45.20;;;17.41;48.33;102026.50;12251538;19;19974;-84
2023/05/07 11:10:50;;;;;;;;;;;18.70;43.50;;;17.64;48.39;102046.19;12254916;19;19918;-85
2023/05/07 11:15:32;;;;;;;;;;;18.80;43.90;;;17.63;48.27;102028.66;12251132;19;19918;-85
2023/05/07 11:19:55;;;;;;;;;;;19.00;43.80;;;17.83;48.21;102045.03;12253630;19;19930;-84
2023/05/07 11:24:16;;;;;;;;;;;19.10;43.20;;;17.80;47.93;102039.97;12250349;19;19910;-84
2023/05/07 11:28:40;;;;;;;;;;;19.20;43.90;;;17.85;48.12;102040.50;12251429;19;19911;-84
2023/05/07 11:32:42;;;;;;;;;;;19.20;44.50;;;17.80;48.05;102039.97;12252243;19;19930;-85
2023/05/07 11:36:45;;;;;;;;;;;19.20;44.30;;;17.74;47.91;102019.16;12250920;19;19915;-85
2023/05/07 11:40:53;;;;;;;;;;;19.20;43.00;;;17.80;47.76;102037.31;12248200;19;19914;-85
2023/05/07 11:44:55;;;;;;;;;;;19.10;43.80;;;17.62;47.65;102007.59;12249860;19;19915;-84
2023/05/07 11:48:57;;;;;;;;;;;19.20;43.10;;;17.78;48.06;102032.09;12249303;19;20343;-85
2023/05/07 11:52:59;;;;;;;;;;;19.10;43.50;;;17.75;47.89;102015.59;12250788;19;19932;-84
2023/05/07 11:57:01;;;;;;;;;;;19.20;44.00;;;17.69;47.80;102009.75;12246264;19;19945;-85
2023/05/07 12:01:03;;;;;;;;;;;19.20;44.00;;;17.91;47.66;102030.38;12247689;19;19926;-85
2023/05/07 12:05:04;;;;;;;;;;;19.20;43.70;;;17.99;47.84;102032.53;12248900;19;19926;-85
2023/05/07 12:09:11;;;;;;;;;;;19.30;43.30;;;17.96;47.53;102019.50;12248582;19;19922;-84
2023/05/07 12:13:17;;;;;;;;;;;19.30;41.70;;;18.04;47.46;102035.72;12251249;19;19915;-84
2023/05/07 12:17:18;;;;;;;;;;;19.30;43.00;;;17.94;47.48;102002.91;12249737;19;20087;-85
2023/05/07 12:21:20;;;;;;;;;;;19.40;43.70;;;18.07;47.51;102013.53;12251687;19;19933;-84
2023/05/07 12:25:22;;;;;;;;;;;19.40;43.20;;;18.13;47.46;102023.69;12248541;19;19982;-84
2023/05/07 12:29:25;;;;;;;;;;;19.40;43.00;;;18.07;47.35;102002.94;12252638;19;19943;-85
2023/05/07 12:33:28;;;;;;;;;;;19.40;43.10;;;18.21;47.32;102023.19;12250601;19;19915;-86
2023/05/07 12:37:30;;;;;;;;;;;19.50;43.10;;;18.26;47.26;102023.72;12247976;19;19944;-84
2023/05/07 12:41:36;;;;;;;;;;;19.60;42.80;;;18.34;46.98;102027.53;12247255;19;19923;-84
2023/05/07 12:45:41;;;;;;;;;;;19.60;43.20;;;18.44;47.13;102034.84;12246961;19;19935;-85
2023/05/07 12:49:43;;;;;;;;;;;19.70;43.10;;;18.44;46.95;102021.63;12249108;19;19947;-85
2023/05/07 12:53:45;;;;;;;;;;;19.70;42.70;;;18.41;46.86;102017.38;12259756;19;19925;-88
2023/05/07 12:57:50;;;;;;;;;;;19.80;43.40;;;18.40;46.68;102010.41;12254869;19;20308;-87
2023/05/07 13:01:53;;;;;;;;;;;19.80;41.90;;;18.29;46.96;102005.00;12258266;19;19923;-87
2023/05/07 13:06:05;;;;;;;;;;;19.80;41.60;;;18.48;46.47;102037.19;12253580;19;19918;-87
2023/05/07 13:10:07;;;;;;;;;;;19.80;42.80;;;18.50;46.55;102039.75;12258767;19;20348;-87
2023/05/07 13:14:09;;;;;;;;;;;19.80;42.80;;;18.28;46.59;101995.34;12257482;19;20345;-86
2023/05/07 13:18:11;;;;;;;;;;;19.70;41.50;;;18.42;46.68;102016.44;12254916;19;19918;-87
2023/05/07 13:22:12;;;;;;;;;;;19.70;41.90;;;18.46;46.50;102019.72;12255800;19;19944;-87
2023/05/07 13:26:14;;;;;;;;;;;19.70;42.30;;;18.52;46.46;102027.22;12253717;19;19942;-87
2023/05/07 13:30:16;;;;;;;;;;;19.70;42.30;;;18.59;46.74;102036.47;12256087;19;19919;-85
2023/05/07 13:34:17;;;;;;;;;;;19.80;42.50;;;18.63;46.46;102034.44;12256086;19;19925;-87
2023/05/07 13:38:19;;;;;;;;;;;19.80;42.80;;;18.62;46.56;102022.16;12255868;19;20349;-86
2023/05/07 13:42:21;;;;;;;;;;;19.80;43.00;;;18.76;46.67;102030.03;12251373;19;19918;-86
2023/05/07 13:46:23;;;;;;;;;;;19.90;42.50;;;18.92;46.47;102035.13;12255686;19;20273;-86
2023/05/07 13:50:26;;;;;;;;;;;20.00;41.90;;;18.95;46.40;102027.78;12253591;19;19915;-86
2023/05/07 13:54:28;;;;;;;;;;;20.10;42.20;;;18.94;46.51;102010.22;12252717;19;19915;-86
2023/05/07 13:58:30;;;;;;;;;;;20.20;42.50;;;19.17;46.42;102029.81;12249204;19;19923;-86
2023/05/07 14:02:31;;;;;;;;;;;20.30;42.80;;;19.18;46.37;102020.06;12248627;19;20080;-86
2023/05/07 14:06:33;;;;;;;;;;;20.40;42.00;;;19.32;46.15;102033.16;12252359;19;19961;-87
2023/05/07 14:10:35;;;;;;;;;;;20.50;41.80;;;19.32;46.26;102027.00;12253462;19;20434;-86
2023/05/07 14:14:36;;;;;;;;;;;20.50;41.30;;;19.44;46.23;102027.00;12250123;19;19940;-86
2023/05/07 14:18:38;;;;;;;;;;;20.60;42.20;;;19.52;46.12;102030.88;12250042;19;19921;-86
2023/05/07 14:22:39;;;;;;;;;;;20.70;41.30;;;19.51;45.99;102023.88;12254167;19;19931;-87
2023/05/07 14:26:41;;;;;;;;;;;20.70;41.30;;;19.52;45.88;102025.56;12248712;19;19939;-86
2023/05/07 14:30:42;;;;;;;;;;;20.70;41.50;;;19.53;45.97;102022.81;12254236;19;19925;-87
2023/05/07 14:34:45;;;;;;;;;;;20.70;41.10;;;19.50;46.10;102001.00;12249732;19;20315;-86
2023/05/07 14:38:47;;;;;;;;;;;20.80;41.90;;;19.44;45.77;101987.25;12254835;19;19975;-86
2023/05/07 14:42:49;;;;;;;;;;;20.80;39.20;;;19.65;45.71;102015.78;12251295;19;19919;-86
2023/05/07 14:46:50;;;;;;;;;;;20.90;40.20;;;19.55;45.55;102001.50;12249041;19;19914;-87
2023/05/07 14:50:52;;;;;;;;;;;20.90;41.40;;;19.79;45.49;102028.03;12252919;19;20267;-86
2023/05/07 14:54:54;;;;;;;;;;;20.90;41.20;;;19.75;45.72;102022.13;12252632;19;19923;-86
2023/05/07 14:58:56;;;;;;;;;;;21.00;39.30;;;19.58;45.58;102001.31;12248825;19;20026;-86
2023/05/07 15:03:05;;;;;;;;;;;21.00;38.90;;;19.70;45.25;102026.09;12250466;19;20346;-86
2023/05/07 15:07:06;;;;;;;;;;;20.90;40.60;;;19.72;45.59;102035.63;12247990;19;19974;-86
2023/05/07 15:11:08;;;;;;;;;;;20.90;39.00;;;19.58;45.04;102023.34;12251908;19;20341;-85
2023/05/07 15:15:09;;;;;;;;;;;20.90;39.60;;;19.58;45.24;102022.50;12251389;19;19962;-86
2023/05/07 15:19:11;;;;;;;;;;;20.90;40.20;;;19.57;45.11;102034.03;12252165;19;19944;-86
2023/05/07 15:23:13;;;;;;;;;;;20.80;39.90;;;19.54;44.89;102050.16;12249276;19;20258;-86
2023/05/07 15:27:19;;;;;;;;;;;20.80;40.20;;;19.35;44.95;102018.84;12247902;19;19919;-85
2023/05/07 15:31:20;;;;;;;;;;;20.70;40.20;;;19.45;44.98;102059.63;12250462;19;19932;-85
2023/05/07 15:35:22;;;;;;;;;;;20.60;40.30;;;19.40;45.10;102059.09;12248741;19;19923;-86
2023/05/07 15:39:23;;;;;;;;;;;20.60;40.60;;;19.36;44.78;102069.09;12252649;19;19914;-86
2023/05/07 15:43:25;;;;;;;;;;;20.50;41.40;;;19.22;44.98;102045.34;12249573;19;19915;-86
2023/05/07 15:47:26;;;;;;;;;;;20.50;40.60;;;19.21;44.90;102055.09;12246964;19;19930;-85
2023/05/07 15:51:29;;;;;;;;;;;20.40;39.90;;;19.11;44.84;102053.22;12250283;19;19919;-85
2023/05/07 15:55:33;;;;;;;;;;;20.30;40.00;;;19.02;44.79;102042.31;12246866;19;19923;-86
2023/05/07 15:59:35;;;;;;;;;;;20.30;40.20;;;19.08;44.70;102048.13;12249667;19;19915;-86
2023/05/07 16:03:37;;;;;;;;;;;20.30;40.30;;;19.04;44.40;102044.00;12248084;19;19915;-86
2023/05/07 16:07:39;;;;;;;;;;;20.20;39.70;;;18.90;44.37;102043.19;12246125;19;19982;-86
2023/05/07 16:11:41;;;;;;;;;;;20.20;37.80;;;18.88;44.24;102055.66;12251015;19;19918;-86
2023/05/07 16:15:42;;;;;;;;;;;20.10;39.70;;;18.87;44.54;102071.63;12247414;19;19982;-86
2023/05/07 16:19:43;;;;;;;;;;;20.10;40.10;;;18.75;44.34;102057.47;12249025;19;19915;-86
2023/05/07 16:23:45;;;;;;;;;;;20.00;39.10;;;18.77;44.53;102082.88;12246652;19;20318;-86
2023/05/07 16:27:47;;;;;;;;;;;19.90;40.30;;;18.71;44.25;102064.75;12244860;19;19919;-85
2023/05/07 16:31:48;;;;;;;;;;;19.90;40.00;;;18.51;44.34;102030.84;12247589;19;19907;-86
2023/05/07 16:35:51;;;;;;;;;;;19.80;40.60;;;18.53;44.12;102072.13;12246359;19;19926;-86
2023/05/07 16:39:53;;;;;;;;;;;19.80;39.30;;;18.41;44.26;102058.84;12248593;19;19926;-85
2023/05/07 16:43:56;;;;;;;;;;;19.70;39.70;;;18.34;44.15;102079.59;12246997;19;19931;-85
2023/05/07 16:47:58;;;;;;;;;;;19.50;39.50;;;18.20;44.15;102077.88;12247209;19;19907;-85
2023/05/07 16:52:00;;;;;;;;;;;19.50;39.20;;;17.99;44.04;102061.59;12247031;19;19983;-85
2023/05/07 16:56:05;;;;;;;;;;;19.30;39.50;;;18.02;44.19;102085.19;12246689;19;19933;-86
2023/05/07 17:00:08;;;;;;;;;;;19.20;40.20;;;18.03;44.33;102093.97;12246447;19;19923;-86
2023/05/07 17:04:09;;;;;;;;;;;19.10;40.10;;;17.99;44.24;102101.25;12245968;19;20255;-86
2023/05/07 17:08:12;;;;;;;;;;;19.10;39.90;;;17.93;44.27;102091.09;12249300;19;20233;-85
2023/05/07 17:12:14;;;;;;;;;;;19.10;40.80;;;17.87;44.10;102079.09;12249907;19;19921;-87
2023/05/07 17:16:15;;;;;;;;;;;19.00;40.90;;;17.87;44.09;102104.66;12244531;19;19907;-86
2023/05/07 17:20:17;;;;;;;;;;;18.90;40.80;;;17.68;44.17;102086.47;12247724;19;19922;-86
2023/05/07 17:24:19;;;;;;;;;;;18.90;40.30;;;17.66;44.03;102098.91;12244440;19;20242;-87
2023/05/07 17:28:21;;;;;;;;;;;18.90;39.50;;;17.59;44.21;102095.81;12249399;19;20399;-86
2023/05/07 17:32:22;;;;;;;;;;;18.80;40.80;;;17.56;44.01;102103.94;12247239;19;19936;-86
2023/05/07 17:36:24;;;;;;;;;;;18.70;40.60;;;17.42;43.89;102102.16;12248220;19;20445;-86
2023/05/07 17:40:28;;;;;;;;;;;18.60;40.10;;;17.35;44.08;102105.28;12258382;19;19914;-86
2023/05/07 17:44:29;;;;;;;;;;;18.60;40.60;;;17.05;44.08;102076.34;12257551;19;21313;-87
2023/05/07 17:48:31;;;;;;;;;;;18.50;40.70;;;17.31;44.00;102124.88;12259450;19;20238;-86
2023/05/07 17:52:33;;;;;;;;;;;18.40;40.40;;;17.27;43.95;102124.22;12258533;19;19922;-86
2023/05/07 17:56:36;;;;;;;;;;;18.40;41.00;;;16.96;44.19;102088.31;12258894;19;19922;-85
2023/05/07 18:00:38;;;;;;;;;;;18.30;40.70;;;17.11;44.23;102112.91;12257799;19;19927;-87
2023/05/07 18:04:39;;;;;;;;;;;18.20;41.00;;;17.17;44.07;102128.38;12247417;19;19994;-87
2023/05/07 18:08:40;;;;;;;;;;;18.20;41.10;;;17.18;44.17;102132.72;12257446;19;19911;-86
2023/05/07 18:12:42;;;;;;;;;;;18.20;41.10;;;17.12;44.02;102115.47;12256633;19;20045;-86